sensor_id;sensor_type;location;lat;lon;timestamp;temperature;humidity
51793;DHT22;37850;53.178;6.376;2022-12-17T00:00:46;-1.10;99.90
51793;DHT22;37850;53.178;6.376;2022-12-17T00:03:30;-0.90;99.90
51793;DHT22;37850;53.178;6.376;2022-12-17T00:06:15;-1.20;99.90
51793;DHT22;37850;53.178;6.376;2022-12-17T00:08:59;-1.20;99.90
51793;DHT22;37850;53.178;6.376;2022-12-17T00:11:43;-0.90;99.90
51793;DHT22;37850;53.178;6.376;2022-12-17T00:14:28;-1.20;99.90
51793;DHT22;37850;53.178;6.376;2022-12-17T00:17:12;-1.20;99.90
51793;DHT22;37850;53.178;6.376;2022-12-17T00:19:56;-0.60;99.90
51793;DHT22;37850;53.178;6.376;2022-12-17T00:22:40;-0.10;99.90
51793;DHT22;37850;53.178;6.376;2022-12-17T00:25:25;-0.70;99.90
51793;DHT22;37850;53.178;6.376;2022-12-17T00:28:13;-0.80;99.90
51793;DHT22;37850;53.178;6.376;2022-12-17T00:30:57;-1.20;99.90
51793;DHT22;37850;53.178;6.376;2022-12-17T00:33:42;-1.30;99.90
51793;DHT22;37850;53.178;6.376;2022-12-17T00:36:26;-1.70;99.90
51793;DHT22;37850;53.178;6.376;2022-12-17T00:39:10;-1.30;99.90
51793;DHT22;37850;53.178;6.376;2022-12-17T00:41:55;-1.30;99.90
51793;DHT22;37850;53.178;6.376;2022-12-17T00:44:39;-1.40;99.90
51793;DHT22;37850;53.178;6.376;2022-12-17T00:47:23;-1.40;99.90
51793;DHT22;37850;53.178;6.376;2022-12-17T00:50:08;-1.30;99.90
51793;DHT22;37850;53.178;6.376;2022-12-17T00:52:53;-0.70;99.90
51793;DHT22;37850;53.178;6.376;2022-12-17T00:55:38;-1.30;99.90
51793;DHT22;37850;53.178;6.376;2022-12-17T00:58:23;-1.30;99.90
51793;DHT22;37850;53.178;6.376;2022-12-17T01:01:07;-1.30;99.90
51793;DHT22;37850;53.178;6.376;2022-12-17T01:03:51;-1.40;99.90
51793;DHT22;37850;53.178;6.376;2022-12-17T01:06:36;-1.40;99.90
51793;DHT22;37850;53.178;6.376;2022-12-17T01:09:20;-1.50;99.90
51793;DHT22;37850;53.178;6.376;2022-12-17T01:12:04;-1.50;99.90
51793;DHT22;37850;53.178;6.376;2022-12-17T01:14:49;-1.50;99.90
51793;DHT22;37850;53.178;6.376;2022-12-17T01:17:33;-1.50;99.90
51793;DHT22;37850;53.178;6.376;2022-12-17T01:20:17;-1.30;99.90
51793;DHT22;37850;53.178;6.376;2022-12-17T01:23:05;-1.50;99.90
51793;DHT22;37850;53.178;6.376;2022-12-17T01:25:56;-1.50;99.90
51793;DHT22;37850;53.178;6.376;2022-12-17T01:28:41;-1.50;99.90
51793;DHT22;37850;53.178;6.376;2022-12-17T01:31:26;-1.60;99.90
51793;DHT22;37850;53.178;6.376;2022-12-17T01:34:11;-1.40;99.90
51793;DHT22;37850;53.178;6.376;2022-12-17T01:36:55;-0.40;99.90
51793;DHT22;37850;53.178;6.376;2022-12-17T01:39:40;-1.50;99.90
51793;DHT22;37850;53.178;6.376;2022-12-17T01:42:24;-1.50;99.90
51793;DHT22;37850;53.178;6.376;2022-12-17T01:45:13;-1.50;99.90
51793;DHT22;37850;53.178;6.376;2022-12-17T01:48:02;-1.50;99.90
51793;DHT22;37850;53.178;6.376;2022-12-17T01:50:50;-1.50;99.90
51793;DHT22;37850;53.178;6.376;2022-12-17T01:53:53;-1.50;99.90
51793;DHT22;37850;53.178;6.376;2022-12-17T01:56:40;-1.50;99.90
51793;DHT22;37850;53.178;6.376;2022-12-17T01:59:46;-1.50;99.90
51793;DHT22;37850;53.178;6.376;2022-12-17T02:02:33;-1.50;99.90
51793;DHT22;37850;53.178;6.376;2022-12-17T02:05:19;-1.50;99.90
51793;DHT22;37850;53.178;6.376;2022-12-17T02:08:37;-1.60;99.90
51793;DHT22;37850;53.178;6.376;2022-12-17T02:14:48;-1.60;99.90
51793;DHT22;37850;53.178;6.376;2022-12-17T02:17:42;-1.60;99.90
51793;DHT22;37850;53.178;6.376;2022-12-17T02:20:32;-1.60;99.90
51793;DHT22;37850;53.178;6.376;2022-12-17T02:23:46;-0.80;99.90
51793;DHT22;37850;53.178;6.376;2022-12-17T02:26:50;-1.60;99.90
51793;DHT22;37850;53.178;6.376;2022-12-17T02:29:44;-1.20;99.90
51793;DHT22;37850;53.178;6.376;2022-12-17T02:32:31;-1.60;99.90
51793;DHT22;37850;53.178;6.376;2022-12-17T02:35:24;-1.60;99.90
51793;DHT22;37850;53.178;6.376;2022-12-17T02:38:18;-1.60;99.90
51793;DHT22;37850;53.178;6.376;2022-12-17T02:41:05;-1.50;99.90
51793;DHT22;37850;53.178;6.376;2022-12-17T02:43:52;-0.90;99.90
51793;DHT22;37850;53.178;6.376;2022-12-17T02:46:39;-1.50;99.90
51793;DHT22;37850;53.178;6.376;2022-12-17T02:49:24;-0.90;99.90
51793;DHT22;37850;53.178;6.376;2022-12-17T02:52:23;-1.50;99.90
51793;DHT22;37850;53.178;6.376;2022-12-17T02:55:09;-1.50;99.90
51793;DHT22;37850;53.178;6.376;2022-12-17T02:57:53;-1.30;99.90
51793;DHT22;37850;53.178;6.376;2022-12-17T03:00:38;-1.00;99.90
51793;DHT22;37850;53.178;6.376;2022-12-17T03:03:22;-1.60;99.90
51793;DHT22;37850;53.178;6.376;2022-12-17T03:06:07;-1.40;99.90
51793;DHT22;37850;53.178;6.376;2022-12-17T03:08:51;-1.60;99.90
51793;DHT22;37850;53.178;6.376;2022-12-17T03:11:39;-1.50;99.90
51793;DHT22;37850;53.178;6.376;2022-12-17T03:14:23;-1.50;99.90
51793;DHT22;37850;53.178;6.376;2022-12-17T03:17:08;-1.50;99.90
51793;DHT22;37850;53.178;6.376;2022-12-17T03:20:06;-1.50;99.90
51793;DHT22;37850;53.178;6.376;2022-12-17T03:22:51;-1.50;99.90
51793;DHT22;37850;53.178;6.376;2022-12-17T03:25:35;-1.10;99.90
51793;DHT22;37850;53.178;6.376;2022-12-17T03:28:20;-1.10;99.90
51793;DHT22;37850;53.178;6.376;2022-12-17T03:31:04;-1.50;99.90
51793;DHT22;37850;53.178;6.376;2022-12-17T03:33:49;-1.50;99.90
51793;DHT22;37850;53.178;6.376;2022-12-17T03:36:33;-1.40;99.90
51793;DHT22;37850;53.178;6.376;2022-12-17T03:39:17;-1.20;99.90
51793;DHT22;37850;53.178;6.376;2022-12-17T03:42:01;-1.40;99.90
51793;DHT22;37850;53.178;6.376;2022-12-17T03:44:46;-1.40;99.90
51793;DHT22;37850;53.178;6.376;2022-12-17T03:47:30;-0.20;99.90
51793;DHT22;37850;53.178;6.376;2022-12-17T03:50:15;-1.40;99.90
51793;DHT22;37850;53.178;6.376;2022-12-17T03:53:19;-1.40;99.90
51793;DHT22;37850;53.178;6.376;2022-12-17T03:56:05;-1.40;99.90
51793;DHT22;37850;53.178;6.376;2022-12-17T03:58:50;-1.40;99.90
51793;DHT22;37850;53.178;6.376;2022-12-17T04:01:34;-1.40;99.90
51793;DHT22;37850;53.178;6.376;2022-12-17T04:04:18;-1.40;99.90
51793;DHT22;37850;53.178;6.376;2022-12-17T04:07:02;-1.40;99.90
51793;DHT22;37850;53.178;6.376;2022-12-17T04:09:47;-1.30;99.90
51793;DHT22;37850;53.178;6.376;2022-12-17T04:12:31;-1.40;99.90
51793;DHT22;37850;53.178;6.376;2022-12-17T04:15:15;-1.40;99.90
51793;DHT22;37850;53.178;6.376;2022-12-17T04:17:59;-1.30;99.90
51793;DHT22;37850;53.178;6.376;2022-12-17T04:20:44;-1.40;99.90
51793;DHT22;37850;53.178;6.376;2022-12-17T04:23:28;-1.40;99.90
51793;DHT22;37850;53.178;6.376;2022-12-17T04:26:12;-1.30;99.90
51793;DHT22;37850;53.178;6.376;2022-12-17T04:28:57;-1.30;99.90
51793;DHT22;37850;53.178;6.376;2022-12-17T04:31:41;-1.30;99.90
51793;DHT22;37850;53.178;6.376;2022-12-17T04:34:25;-0.70;99.90
51793;DHT22;37850;53.178;6.376;2022-12-17T04:37:09;-1.30;99.90
51793;DHT22;37850;53.178;6.376;2022-12-17T04:39:54;-1.30;99.90
51793;DHT22;37850;53.178;6.376;2022-12-17T04:42:38;-1.30;99.90
51793;DHT22;37850;53.178;6.376;2022-12-17T04:45:22;-1.30;99.90
51793;DHT22;37850;53.178;6.376;2022-12-17T04:48:08;-1.20;99.90
51793;DHT22;37850;53.178;6.376;2022-12-17T04:50:53;-1.30;99.90
51793;DHT22;37850;53.178;6.376;2022-12-17T04:53:37;-1.30;99.90
51793;DHT22;37850;53.178;6.376;2022-12-17T04:56:22;-1.30;99.90
51793;DHT22;37850;53.178;6.376;2022-12-17T04:59:06;-1.30;99.90
51793;DHT22;37850;53.178;6.376;2022-12-17T05:01:50;-1.30;99.90
51793;DHT22;37850;53.178;6.376;2022-12-17T05:04:34;-1.30;99.90
51793;DHT22;37850;53.178;6.376;2022-12-17T05:07:19;-1.30;99.90
51793;DHT22;37850;53.178;6.376;2022-12-17T05:10:04;-1.10;99.90
51793;DHT22;37850;53.178;6.376;2022-12-17T05:12:58;-1.20;99.90
51793;DHT22;37850;53.178;6.376;2022-12-17T05:15:43;-1.20;99.90
51793;DHT22;37850;53.178;6.376;2022-12-17T05:18:28;-1.20;99.90
51793;DHT22;37850;53.178;6.376;2022-12-17T05:21:12;-1.20;99.90
51793;DHT22;37850;53.178;6.376;2022-12-17T05:23:56;-1.20;99.90
51793;DHT22;37850;53.178;6.376;2022-12-17T05:26:40;-1.20;99.90
51793;DHT22;37850;53.178;6.376;2022-12-17T05:29:25;-1.20;99.90
51793;DHT22;37850;53.178;6.376;2022-12-17T05:32:09;-1.20;99.90
51793;DHT22;37850;53.178;6.376;2022-12-17T05:34:54;-0.40;99.90
51793;DHT22;37850;53.178;6.376;2022-12-17T05:37:38;-1.20;99.90
51793;DHT22;37850;53.178;6.376;2022-12-17T05:40:22;-0.10;99.90
51793;DHT22;37850;53.178;6.376;2022-12-17T05:43:10;-1.20;99.90
51793;DHT22;37850;53.178;6.376;2022-12-17T05:45:58;-1.30;99.90
51793;DHT22;37850;53.178;6.376;2022-12-17T05:48:43;-0.90;99.90
51793;DHT22;37850;53.178;6.376;2022-12-17T05:51:28;-1.30;99.90
51793;DHT22;37850;53.178;6.376;2022-12-17T05:54:12;-1.30;99.90
51793;DHT22;37850;53.178;6.376;2022-12-17T05:56:56;-1.30;99.90
51793;DHT22;37850;53.178;6.376;2022-12-17T05:59:41;-1.30;99.90
51793;DHT22;37850;53.178;6.376;2022-12-17T06:02:25;-0.90;99.90
51793;DHT22;37850;53.178;6.376;2022-12-17T06:05:10;-1.20;99.90
51793;DHT22;37850;53.178;6.376;2022-12-17T06:08:02;-1.40;99.90
51793;DHT22;37850;53.178;6.376;2022-12-17T06:10:46;-1.30;99.90
51793;DHT22;37850;53.178;6.376;2022-12-17T06:13:31;-1.40;99.90
51793;DHT22;37850;53.178;6.376;2022-12-17T06:16:15;-0.80;99.90
51793;DHT22;37850;53.178;6.376;2022-12-17T06:18:59;-0.30;99.90
51793;DHT22;37850;53.178;6.376;2022-12-17T06:21:43;-0.60;99.90
51793;DHT22;37850;53.178;6.376;2022-12-17T06:24:27;-1.20;99.90
51793;DHT22;37850;53.178;6.376;2022-12-17T06:27:12;-1.30;99.90
51793;DHT22;37850;53.178;6.376;2022-12-17T06:29:56;-0.30;99.90
51793;DHT22;37850;53.178;6.376;2022-12-17T06:32:40;-0.50;99.90
51793;DHT22;37850;53.178;6.376;2022-12-17T06:35:25;-0.30;99.90
51793;DHT22;37850;53.178;6.376;2022-12-17T06:38:09;-1.30;99.90
51793;DHT22;37850;53.178;6.376;2022-12-17T06:40:54;-0.30;99.90
51793;DHT22;37850;53.178;6.376;2022-12-17T06:43:38;-1.30;99.90
51793;DHT22;37850;53.178;6.376;2022-12-17T06:46:22;-0.90;99.90
51793;DHT22;37850;53.178;6.376;2022-12-17T06:49:07;-1.30;99.90
51793;DHT22;37850;53.178;6.376;2022-12-17T06:51:51;-1.30;99.90
51793;DHT22;37850;53.178;6.376;2022-12-17T06:54:39;-1.30;99.90
51793;DHT22;37850;53.178;6.376;2022-12-17T06:57:23;-1.20;99.90
51793;DHT22;37850;53.178;6.376;2022-12-17T07:00:07;-1.20;99.90
51793;DHT22;37850;53.178;6.376;2022-12-17T07:02:56;-1.30;99.90
51793;DHT22;37850;53.178;6.376;2022-12-17T07:05:41;-1.20;99.90
51793;DHT22;37850;53.178;6.376;2022-12-17T07:08:26;-0.40;99.90
51793;DHT22;37850;53.178;6.376;2022-12-17T07:11:10;-1.10;99.90
51793;DHT22;37850;53.178;6.376;2022-12-17T07:13:54;-1.20;99.90
51793;DHT22;37850;53.178;6.376;2022-12-17T07:16:38;-1.20;99.90
51793;DHT22;37850;53.178;6.376;2022-12-17T07:19:23;-1.20;99.90
51793;DHT22;37850;53.178;6.376;2022-12-17T07:22:07;-1.20;99.90
51793;DHT22;37850;53.178;6.376;2022-12-17T07:24:51;-1.20;99.90
51793;DHT22;37850;53.178;6.376;2022-12-17T07:27:36;-1.20;99.90
51793;DHT22;37850;53.178;6.376;2022-12-17T07:30:21;-1.20;99.90
51793;DHT22;37850;53.178;6.376;2022-12-17T07:33:06;-1.20;99.90
51793;DHT22;37850;53.178;6.376;2022-12-17T07:35:52;-0.80;99.90
51793;DHT22;37850;53.178;6.376;2022-12-17T07:38:38;-1.20;99.90
51793;DHT22;37850;53.178;6.376;2022-12-17T07:41:22;-0.30;99.90
51793;DHT22;37850;53.178;6.376;2022-12-17T07:44:06;-1.20;99.90
51793;DHT22;37850;53.178;6.376;2022-12-17T07:46:50;-1.20;99.90
51793;DHT22;37850;53.178;6.376;2022-12-17T07:49:35;-1.20;99.90
51793;DHT22;37850;53.178;6.376;2022-12-17T07:52:19;-0.50;99.90
51793;DHT22;37850;53.178;6.376;2022-12-17T07:55:04;-1.20;99.90
51793;DHT22;37850;53.178;6.376;2022-12-17T07:58:00;-1.20;99.90
51793;DHT22;37850;53.178;6.376;2022-12-17T08:00:45;-1.30;99.90
51793;DHT22;37850;53.178;6.376;2022-12-17T08:03:30;-1.30;99.90
51793;DHT22;37850;53.178;6.376;2022-12-17T08:06:14;-1.30;99.90
51793;DHT22;37850;53.178;6.376;2022-12-17T08:08:58;-1.30;99.90
51793;DHT22;37850;53.178;6.376;2022-12-17T08:11:42;-1.30;99.90
51793;DHT22;37850;53.178;6.376;2022-12-17T08:14:27;-0.80;99.90
51793;DHT22;37850;53.178;6.376;2022-12-17T08:17:11;-1.30;99.90
51793;DHT22;37850;53.178;6.376;2022-12-17T08:19:55;-0.20;99.90
51793;DHT22;37850;53.178;6.376;2022-12-17T08:22:40;-1.30;99.90
51793;DHT22;37850;53.178;6.376;2022-12-17T08:25:24;-1.30;99.90
51793;DHT22;37850;53.178;6.376;2022-12-17T08:28:09;-1.10;99.90
51793;DHT22;37850;53.178;6.376;2022-12-17T08:30:53;-1.30;99.90
51793;DHT22;37850;53.178;6.376;2022-12-17T08:33:38;-0.40;99.90
51793;DHT22;37850;53.178;6.376;2022-12-17T08:36:22;-1.30;99.90
51793;DHT22;37850;53.178;6.376;2022-12-17T08:39:07;-1.10;99.90
51793;DHT22;37850;53.178;6.376;2022-12-17T08:41:51;-1.00;99.90
51793;DHT22;37850;53.178;6.376;2022-12-17T08:44:39;-1.30;99.90
51793;DHT22;37850;53.178;6.376;2022-12-17T08:47:23;-1.30;99.90
51793;DHT22;37850;53.178;6.376;2022-12-17T08:50:08;-1.30;99.90
51793;DHT22;37850;53.178;6.376;2022-12-17T08:53:02;-1.30;99.90
51793;DHT22;37850;53.178;6.376;2022-12-17T08:55:47;-0.20;99.90
51793;DHT22;37850;53.178;6.376;2022-12-17T08:58:32;-0.30;99.90
51793;DHT22;37850;53.178;6.376;2022-12-17T09:01:16;-0.90;99.90
51793;DHT22;37850;53.178;6.376;2022-12-17T09:04:01;-0.20;99.90
51793;DHT22;37850;53.178;6.376;2022-12-17T09:06:45;-1.30;99.90
51793;DHT22;37850;53.178;6.376;2022-12-17T09:09:30;-1.30;99.90
51793;DHT22;37850;53.178;6.376;2022-12-17T09:12:14;-1.30;99.90
51793;DHT22;37850;53.178;6.376;2022-12-17T09:14:58;-1.20;99.90
51793;DHT22;37850;53.178;6.376;2022-12-17T09:17:42;-1.30;99.90
51793;DHT22;37850;53.178;6.376;2022-12-17T09:20:27;-1.30;99.90
51793;DHT22;37850;53.178;6.376;2022-12-17T09:23:16;-1.30;99.90
51793;DHT22;37850;53.178;6.376;2022-12-17T09:26:01;-1.30;99.90
51793;DHT22;37850;53.178;6.376;2022-12-17T09:28:45;-1.30;99.90
51793;DHT22;37850;53.178;6.376;2022-12-17T09:31:31;-1.30;99.90
51793;DHT22;37850;53.178;6.376;2022-12-17T09:34:16;-1.30;99.90
51793;DHT22;37850;53.178;6.376;2022-12-17T09:37:00;-1.30;99.90
51793;DHT22;37850;53.178;6.376;2022-12-17T09:39:45;-1.30;99.90
51793;DHT22;37850;53.178;6.376;2022-12-17T09:45:19;-1.30;99.90
51793;DHT22;37850;53.178;6.376;2022-12-17T09:50:59;-1.30;99.90
51793;DHT22;37850;53.178;6.376;2022-12-17T09:53:47;-1.30;99.90
51793;DHT22;37850;53.178;6.376;2022-12-17T09:56:33;-1.30;99.90
51793;DHT22;37850;53.178;6.376;2022-12-17T09:59:19;-1.30;99.90
51793;DHT22;37850;53.178;6.376;2022-12-17T10:02:16;-1.30;99.90
51793;DHT22;37850;53.178;6.376;2022-12-17T10:05:03;-1.20;99.90
51793;DHT22;37850;53.178;6.376;2022-12-17T10:07:49;-1.20;99.90
51793;DHT22;37850;53.178;6.376;2022-12-17T10:10:35;-1.20;99.90
51793;DHT22;37850;53.178;6.376;2022-12-17T10:13:24;-0.90;99.90
51793;DHT22;37850;53.178;6.376;2022-12-17T10:16:27;-1.20;99.90
51793;DHT22;37850;53.178;6.376;2022-12-17T10:19:30;-0.20;99.90
51793;DHT22;37850;53.178;6.376;2022-12-17T10:22:16;-1.20;99.90
51793;DHT22;37850;53.178;6.376;2022-12-17T10:25:21;-1.20;99.90
51793;DHT22;37850;53.178;6.376;2022-12-17T10:28:11;-1.20;99.90
51793;DHT22;37850;53.178;6.376;2022-12-17T10:30:57;-1.20;99.90
51793;DHT22;37850;53.178;6.376;2022-12-17T10:33:42;-1.20;99.90
51793;DHT22;37850;53.178;6.376;2022-12-17T10:36:27;-1.20;99.90
51793;DHT22;37850;53.178;6.376;2022-12-17T10:39:19;-1.20;99.90
51793;DHT22;37850;53.178;6.376;2022-12-17T10:48:22;-1.20;99.90
51793;DHT22;37850;53.178;6.376;2022-12-17T10:51:39;-0.10;99.90
51793;DHT22;37850;53.178;6.376;2022-12-17T10:54:29;-0.40;99.90
51793;DHT22;37850;53.178;6.376;2022-12-17T11:00:35;-0.80;99.90
51793;DHT22;37850;53.178;6.376;2022-12-17T11:03:23;-1.10;99.90
51793;DHT22;37850;53.178;6.376;2022-12-17T11:06:10;-1.10;99.90
51793;DHT22;37850;53.178;6.376;2022-12-17T11:12:48;-1.10;99.90
51793;DHT22;37850;53.178;6.376;2022-12-17T11:15:45;-0.70;99.90
51793;DHT22;37850;53.178;6.376;2022-12-17T11:21:56;-1.00;99.90
51793;DHT22;37850;53.178;6.376;2022-12-17T11:27:33;-0.90;99.90
51793;DHT22;37850;53.178;6.376;2022-12-17T11:30:19;-0.90;99.90
51793;DHT22;37850;53.178;6.376;2022-12-17T11:33:19;-0.10;99.90
51793;DHT22;37850;53.178;6.376;2022-12-17T11:36:22;-0.90;99.90
51793;DHT22;37850;53.178;6.376;2022-12-17T11:39:21;-0.80;99.90
51793;DHT22;37850;53.178;6.376;2022-12-17T11:42:20;-0.80;99.90
51793;DHT22;37850;53.178;6.376;2022-12-17T11:48:20;-0.70;99.90
51793;DHT22;37850;53.178;6.376;2022-12-17T11:51:32;-0.70;99.90
51793;DHT22;37850;53.178;6.376;2022-12-17T12:00:05;-0.60;99.90
51793;DHT22;37850;53.178;6.376;2022-12-17T12:06:16;-0.50;99.90
51793;DHT22;37850;53.178;6.376;2022-12-17T12:15:29;-0.50;99.90
51793;DHT22;37850;53.178;6.376;2022-12-17T12:21:39;-0.40;99.90
51793;DHT22;37850;53.178;6.376;2022-12-17T12:33:50;-0.30;99.90
51793;DHT22;37850;53.178;6.376;2022-12-17T12:36:37;-0.30;99.90
51793;DHT22;37850;53.178;6.376;2022-12-17T12:39:43;-0.20;99.90
51793;DHT22;37850;53.178;6.376;2022-12-17T12:42:37;0.50;99.90
51793;DHT22;37850;53.178;6.376;2022-12-17T12:45:39;0.60;99.90
51793;DHT22;37850;53.178;6.376;2022-12-17T12:51:33;0.80;99.90
51793;DHT22;37850;53.178;6.376;2022-12-17T13:03:25;-0.10;99.90
51793;DHT22;37850;53.178;6.376;2022-12-17T13:06:12;-0.10;99.90
51793;DHT22;37850;53.178;6.376;2022-12-17T13:08:39;0.00;99.90
51793;DHT22;37850;53.178;6.376;2022-12-17T13:11:27;0.00;99.90
51793;DHT22;37850;53.178;6.376;2022-12-17T13:13:58;0.00;99.90
51793;DHT22;37850;53.178;6.376;2022-12-17T13:22:29;0.00;99.90
51793;DHT22;37850;53.178;6.376;2022-12-17T13:25:15;0.00;99.90
51793;DHT22;37850;53.178;6.376;2022-12-17T13:27:42;0.00;99.90
51793;DHT22;37850;53.178;6.376;2022-12-17T13:38:58;0.00;99.90
51793;DHT22;37850;53.178;6.376;2022-12-17T13:41:31;0.00;99.90
51793;DHT22;37850;53.178;6.376;2022-12-17T13:44:37;0.00;99.90
51793;DHT22;37850;53.178;6.376;2022-12-17T13:47:04;0.00;99.90
51793;DHT22;37850;53.178;6.376;2022-12-17T13:49:33;0.00;99.90
51793;DHT22;37850;53.178;6.376;2022-12-17T13:52:06;0.10;99.90
51793;DHT22;37850;53.178;6.376;2022-12-17T13:54:39;0.00;99.90
51793;DHT22;37850;53.178;6.376;2022-12-17T13:57:08;0.00;99.90
51793;DHT22;37850;53.178;6.376;2022-12-17T13:59:34;0.00;99.90
51793;DHT22;37850;53.178;6.376;2022-12-17T14:02:00;0.50;99.90
51793;DHT22;37850;53.178;6.376;2022-12-17T14:04:28;0.10;99.90
51793;DHT22;37850;53.178;6.376;2022-12-17T14:06:57;0.50;99.90
51793;DHT22;37850;53.178;6.376;2022-12-17T14:09:32;0.00;99.90
51793;DHT22;37850;53.178;6.376;2022-12-17T14:12:02;-0.10;99.90
51793;DHT22;37850;53.178;6.376;2022-12-17T14:14:55;0.50;99.90
51793;DHT22;37850;53.178;6.376;2022-12-17T14:17:27;0.00;99.90
51793;DHT22;37850;53.178;6.376;2022-12-17T14:20:00;0.00;99.90
51793;DHT22;37850;53.178;6.376;2022-12-17T14:22:38;-0.10;99.90
51793;DHT22;37850;53.178;6.376;2022-12-17T14:25:20;-0.20;99.90
51793;DHT22;37850;53.178;6.376;2022-12-17T14:27:59;-0.20;99.90
51793;DHT22;37850;53.178;6.376;2022-12-17T14:30:42;-0.20;99.90
51793;DHT22;37850;53.178;6.376;2022-12-17T14:33:38;-0.20;99.90
51793;DHT22;37850;53.178;6.376;2022-12-17T14:36:20;-0.20;99.90
51793;DHT22;37850;53.178;6.376;2022-12-17T14:38:53;-0.30;99.90
51793;DHT22;37850;53.178;6.376;2022-12-17T14:41:19;-0.30;99.90
51793;DHT22;37850;53.178;6.376;2022-12-17T14:44:04;-0.30;99.90
51793;DHT22;37850;53.178;6.376;2022-12-17T14:46:32;-0.30;99.90
51793;DHT22;37850;53.178;6.376;2022-12-17T14:49:00;-0.40;99.90
51793;DHT22;37850;53.178;6.376;2022-12-17T14:51:36;-0.30;99.90
51793;DHT22;37850;53.178;6.376;2022-12-17T14:56:39;-0.40;99.90
51793;DHT22;37850;53.178;6.376;2022-12-17T14:59:50;-0.40;99.90
51793;DHT22;37850;53.178;6.376;2022-12-17T15:01:52;0.20;99.90
51793;DHT22;37850;53.178;6.376;2022-12-17T15:04:18;-0.40;99.90
51793;DHT22;37850;53.178;6.376;2022-12-17T15:06:45;-0.50;99.90
51793;DHT22;37850;53.178;6.376;2022-12-17T15:09:12;-0.50;99.90
51793;DHT22;37850;53.178;6.376;2022-12-17T15:11:38;-0.50;99.90
51793;DHT22;37850;53.178;6.376;2022-12-17T15:14:04;-0.60;99.90
51793;DHT22;37850;53.178;6.376;2022-12-17T15:16:30;-0.60;99.90
51793;DHT22;37850;53.178;6.376;2022-12-17T15:18:56;-0.10;99.90
51793;DHT22;37850;53.178;6.376;2022-12-17T15:21:23;-0.50;99.90
51793;DHT22;37850;53.178;6.376;2022-12-17T15:23:49;-0.60;99.90
51793;DHT22;37850;53.178;6.376;2022-12-17T15:26:15;-1.00;99.90
51793;DHT22;37850;53.178;6.376;2022-12-17T15:28:42;-0.70;99.90
51793;DHT22;37850;53.178;6.376;2022-12-17T15:31:12;0.40;99.90
51793;DHT22;37850;53.178;6.376;2022-12-17T15:33:39;-0.80;99.90
51793;DHT22;37850;53.178;6.376;2022-12-17T15:36:08;-0.20;99.90
51793;DHT22;37850;53.178;6.376;2022-12-17T15:38:34;-0.80;99.90
51793;DHT22;37850;53.178;6.376;2022-12-17T15:41:01;-0.90;99.90
51793;DHT22;37850;53.178;6.376;2022-12-17T15:43:48;-0.60;99.90
51793;DHT22;37850;53.178;6.376;2022-12-17T15:46:14;-0.90;99.90
51793;DHT22;37850;53.178;6.376;2022-12-17T15:48:39;-0.90;99.90
51793;DHT22;37850;53.178;6.376;2022-12-17T15:51:06;-0.80;99.90
51793;DHT22;37850;53.178;6.376;2022-12-17T15:53:32;-1.00;99.90
51793;DHT22;37850;53.178;6.376;2022-12-17T15:56:02;-1.00;99.90
51793;DHT22;37850;53.178;6.376;2022-12-17T15:58:28;-0.80;99.90
51793;DHT22;37850;53.178;6.376;2022-12-17T16:00:55;-1.00;99.90
51793;DHT22;37850;53.178;6.376;2022-12-17T16:03:21;-1.10;99.90
51793;DHT22;37850;53.178;6.376;2022-12-17T16:05:47;-1.10;99.90
51793;DHT22;37850;53.178;6.376;2022-12-17T16:08:13;-1.10;99.90
51793;DHT22;37850;53.178;6.376;2022-12-17T16:10:39;-1.10;99.90
51793;DHT22;37850;53.178;6.376;2022-12-17T16:13:06;-0.70;99.90
51793;DHT22;37850;53.178;6.376;2022-12-17T16:15:31;-1.20;99.90
51793;DHT22;37850;53.178;6.376;2022-12-17T16:17:57;-1.20;99.90
51793;DHT22;37850;53.178;6.376;2022-12-17T16:20:23;-0.30;99.90
51793;DHT22;37850;53.178;6.376;2022-12-17T16:22:49;-1.10;99.90
51793;DHT22;37850;53.178;6.376;2022-12-17T16:25:15;-1.00;99.90
51793;DHT22;37850;53.178;6.376;2022-12-17T16:27:41;-1.30;99.90
51793;DHT22;37850;53.178;6.376;2022-12-17T16:30:08;-1.30;99.90
51793;DHT22;37850;53.178;6.376;2022-12-17T16:32:38;-1.40;99.90
51793;DHT22;37850;53.178;6.376;2022-12-17T16:35:05;-1.30;99.90
51793;DHT22;37850;53.178;6.376;2022-12-17T16:37:31;-1.40;99.90
51793;DHT22;37850;53.178;6.376;2022-12-17T16:39:57;-1.40;99.90
51793;DHT22;37850;53.178;6.376;2022-12-17T16:42:22;-1.50;99.90
51793;DHT22;37850;53.178;6.376;2022-12-17T16:44:49;-1.50;99.90
51793;DHT22;37850;53.178;6.376;2022-12-17T16:47:14;-1.50;99.90
51793;DHT22;37850;53.178;6.376;2022-12-17T16:49:40;-0.50;99.90
51793;DHT22;37850;53.178;6.376;2022-12-17T16:52:06;-1.60;99.90
51793;DHT22;37850;53.178;6.376;2022-12-17T16:54:32;-1.30;99.90
51793;DHT22;37850;53.178;6.376;2022-12-17T16:56:59;-1.60;99.90
51793;DHT22;37850;53.178;6.376;2022-12-17T16:59:25;-1.60;99.90
51793;DHT22;37850;53.178;6.376;2022-12-17T17:01:51;-2.60;99.90
51793;DHT22;37850;53.178;6.376;2022-12-17T17:04:20;-1.60;99.90
51793;DHT22;37850;53.178;6.376;2022-12-17T17:06:51;-1.70;99.90
51793;DHT22;37850;53.178;6.376;2022-12-17T17:09:18;-1.70;99.90
51793;DHT22;37850;53.178;6.376;2022-12-17T17:11:45;-1.30;99.90
51793;DHT22;37850;53.178;6.376;2022-12-17T17:14:11;-1.70;99.90
51793;DHT22;37850;53.178;6.376;2022-12-17T17:16:37;-1.60;99.90
51793;DHT22;37850;53.178;6.376;2022-12-17T17:19:03;-1.70;99.90
51793;DHT22;37850;53.178;6.376;2022-12-17T17:21:35;-1.80;99.90
51793;DHT22;37850;53.178;6.376;2022-12-17T17:24:13;-1.80;99.90
51793;DHT22;37850;53.178;6.376;2022-12-17T17:26:40;-1.80;99.90
51793;DHT22;37850;53.178;6.376;2022-12-17T17:29:07;-1.90;99.90
51793;DHT22;37850;53.178;6.376;2022-12-17T17:31:33;-1.80;99.90
51793;DHT22;37850;53.178;6.376;2022-12-17T17:33:59;-1.90;99.90
51793;DHT22;37850;53.178;6.376;2022-12-17T17:36:29;-1.90;99.90
51793;DHT22;37850;53.178;6.376;2022-12-17T17:38:56;-1.90;99.90
51793;DHT22;37850;53.178;6.376;2022-12-17T17:41:25;-1.90;99.90
51793;DHT22;37850;53.178;6.376;2022-12-17T17:43:53;-1.90;99.90
51793;DHT22;37850;53.178;6.376;2022-12-17T17:46:19;-1.90;99.90
51793;DHT22;37850;53.178;6.376;2022-12-17T17:48:46;-1.90;99.90
51793;DHT22;37850;53.178;6.376;2022-12-17T17:51:18;-2.00;99.90
51793;DHT22;37850;53.178;6.376;2022-12-17T17:53:45;-2.00;99.90
51793;DHT22;37850;53.178;6.376;2022-12-17T17:56:14;-1.70;99.90
51793;DHT22;37850;53.178;6.376;2022-12-17T17:58:46;-2.00;99.90
51793;DHT22;37850;53.178;6.376;2022-12-17T18:01:18;-2.00;99.90
51793;DHT22;37850;53.178;6.376;2022-12-17T18:03:44;-2.00;99.90
51793;DHT22;37850;53.178;6.376;2022-12-17T18:06:12;-2.00;99.90
51793;DHT22;37850;53.178;6.376;2022-12-17T18:08:38;-1.60;99.90
51793;DHT22;37850;53.178;6.376;2022-12-17T18:11:06;-2.10;99.90
51793;DHT22;37850;53.178;6.376;2022-12-17T18:13:33;-2.20;99.90
51793;DHT22;37850;53.178;6.376;2022-12-17T18:16:17;-2.20;99.90
51793;DHT22;37850;53.178;6.376;2022-12-17T18:18:43;-2.20;99.90
51793;DHT22;37850;53.178;6.376;2022-12-17T18:21:12;-2.20;99.90
51793;DHT22;37850;53.178;6.376;2022-12-17T18:23:39;-1.20;99.90
51793;DHT22;37850;53.178;6.376;2022-12-17T18:26:11;-2.30;99.90
51793;DHT22;37850;53.178;6.376;2022-12-17T18:28:39;-1.30;99.90
51793;DHT22;37850;53.178;6.376;2022-12-17T18:31:13;-2.30;99.90